createdAt,value
2022-10-19T00:01:37.238Z,10.85
2022-10-19T00:04:02.479Z,10.85
2022-10-19T00:06:30.059Z,10.81
2022-10-19T00:08:57.827Z,10.76
2022-10-19T00:11:20.187Z,10.76
2022-10-19T00:13:42.534Z,10.76
2022-10-19T00:16:12.946Z,10.76
2022-10-19T00:18:35.437Z,10.77
2022-10-19T00:21:06.625Z,10.75
2022-10-19T00:23:29.057Z,10.78
2022-10-19T00:25:57.803Z,10.76
2022-10-19T00:28:20.237Z,10.78
2022-10-19T00:30:42.690Z,10.78
2022-10-19T00:33:05.184Z,10.78
2022-10-19T00:35:27.513Z,10.81
2022-10-19T00:37:49.835Z,10.81
2022-10-19T00:40:12.433Z,10.80
2022-10-19T00:42:35.094Z,10.82
2022-10-19T00:45:00.905Z,10.82
2022-10-19T00:47:24.166Z,10.84
2022-10-19T00:49:46.442Z,10.86
2022-10-19T00:52:13.182Z,10.84
2022-10-19T00:54:36.925Z,10.86
2022-10-19T00:56:59.365Z,10.85
2022-10-19T00:59:22.502Z,10.86
2022-10-19T01:01:45.408Z,10.84
2022-10-19T01:04:08.038Z,10.83
2022-10-19T01:06:30.508Z,10.83
2022-10-19T01:08:53.010Z,10.83
2022-10-19T01:11:32.707Z,10.80
2022-10-19T01:14:05.642Z,10.81
2022-10-19T01:17:13.235Z,10.78
2022-10-19T01:20:22.142Z,10.76
2022-10-19T01:23:13.582Z,10.77
2022-10-19T01:26:23.760Z,10.74
2022-10-19T01:29:50.284Z,10.74
2022-10-19T01:32:22.337Z,10.74
2022-10-19T01:35:07.828Z,10.73
2022-10-19T01:37:48.122Z,10.72
2022-10-19T01:40:31.652Z,10.75
2022-10-19T01:43:04.673Z,10.70
2022-10-19T01:46:27.543Z,10.70
2022-10-19T01:48:59.064Z,10.72
2022-10-19T01:51:27.144Z,10.68
2022-10-19T01:53:52.067Z,10.69
2022-10-19T01:56:14.482Z,10.68
2022-10-19T01:58:37.549Z,10.69
2022-10-19T02:01:03.440Z,10.70
2022-10-19T02:03:26.056Z,10.69
2022-10-19T02:05:48.425Z,10.69
2022-10-19T02:08:18.486Z,10.65
2022-10-19T02:10:41.669Z,10.67
2022-10-19T02:13:04.186Z,10.66
2022-10-19T02:15:27.224Z,10.65
2022-10-19T02:17:52.285Z,10.67
2022-10-19T02:20:15.324Z,10.62
2022-10-19T02:22:37.736Z,10.65
2022-10-19T02:25:00.159Z,10.65
2022-10-19T02:27:22.591Z,10.67
2022-10-19T02:29:45.037Z,10.66
2022-10-19T02:32:07.579Z,10.68
2022-10-19T02:34:30.287Z,10.66
2022-10-19T02:36:52.646Z,10.69
2022-10-19T02:39:15.171Z,10.69
2022-10-19T02:41:44.785Z,10.66
2022-10-19T02:44:24.428Z,10.65
2022-10-19T02:47:12.155Z,10.68
2022-10-19T02:49:35.637Z,10.63
2022-10-19T02:52:06.633Z,10.64
2022-10-19T02:54:29.368Z,10.61
2022-10-19T02:56:51.705Z,10.61
2022-10-19T02:59:14.169Z,10.62
2022-10-19T03:01:36.542Z,10.56
2022-10-19T03:03:59.064Z,10.54
2022-10-19T03:06:21.376Z,10.52
2022-10-19T03:08:43.814Z,10.53
2022-10-19T03:11:06.390Z,10.54
2022-10-19T03:13:28.787Z,10.56
2022-10-19T03:15:51.466Z,10.53
2022-10-19T03:18:13.825Z,10.57
2022-10-19T03:20:36.212Z,10.52
2022-10-19T03:22:58.594Z,10.56
2022-10-19T03:25:21.025Z,10.54
2022-10-19T03:27:43.413Z,10.53
2022-10-19T03:30:06.449Z,10.53
2022-10-19T03:32:28.916Z,10.51
2022-10-19T03:34:51.366Z,10.55
2022-10-19T03:37:15.261Z,10.53
2022-10-19T03:39:37.670Z,10.53
2022-10-19T03:42:00.314Z,10.54
2022-10-19T03:44:22.889Z,10.52
2022-10-19T03:46:45.213Z,10.52
2022-10-19T03:49:07.625Z,10.52
2022-10-19T03:51:30.693Z,10.48
2022-10-19T03:53:54.460Z,10.49
2022-10-19T03:56:18.770Z,10.51
2022-10-19T03:58:41.757Z,10.50
2022-10-19T04:01:11.275Z,10.50
2022-10-19T04:03:33.636Z,10.46
2022-10-19T04:06:10.148Z,10.47
2022-10-19T04:08:32.816Z,10.48
2022-10-19T04:11:06.722Z,10.45
2022-10-19T04:13:29.511Z,10.44
2022-10-19T04:15:51.965Z,10.47
2022-10-19T04:18:14.357Z,10.41
2022-10-19T04:20:38.821Z,10.39
2022-10-19T04:23:01.176Z,10.37
2022-10-19T04:25:23.550Z,10.37
2022-10-19T04:27:46.203Z,10.37
2022-10-19T04:29:48.345Z,10.33
2022-10-19T04:31:51.288Z,10.36
2022-10-19T04:33:53.439Z,10.35
2022-10-19T04:36:00.105Z,10.36
2022-10-19T04:38:02.274Z,10.32
2022-10-19T04:40:05.989Z,10.31
2022-10-19T04:42:08.119Z,10.32
2022-10-19T04:44:10.640Z,10.27
2022-10-19T04:46:18.086Z,10.30
2022-10-19T04:48:20.194Z,10.28
2022-10-19T04:50:23.390Z,10.27
2022-10-19T04:52:25.486Z,10.29
2022-10-19T04:54:27.600Z,10.24
2022-10-19T04:56:30.902Z,10.26
2022-10-19T04:58:33.075Z,10.25
2022-10-19T05:00:37.317Z,10.29
2022-10-19T05:02:46.369Z,10.26
2022-10-19T05:04:48.926Z,10.25
2022-10-19T05:06:51.151Z,10.20
2022-10-19T05:08:53.394Z,10.19
2022-10-19T05:10:55.587Z,10.18
2022-10-19T05:12:57.765Z,10.19
2022-10-19T05:14:59.893Z,10.16
2022-10-19T05:17:02.060Z,10.16
2022-10-19T05:19:04.224Z,10.17
2022-10-19T05:21:15.116Z,10.18
2022-10-19T05:23:17.303Z,10.16
2022-10-19T05:25:19.537Z,10.16
2022-10-19T05:27:22.304Z,10.23
2022-10-19T05:29:24.577Z,10.20
2022-10-19T05:31:28.947Z,10.18
2022-10-19T05:33:31.121Z,10.19
2022-10-19T05:35:33.236Z,10.21
2022-10-19T05:37:35.615Z,10.18
2022-10-19T05:39:38.041Z,10.20
2022-10-19T05:41:41.881Z,10.16
2022-10-19T05:43:44.397Z,10.20
2022-10-19T05:45:46.530Z,10.26
2022-10-19T05:47:48.659Z,10.25
2022-10-19T05:49:50.778Z,10.21
2022-10-19T05:51:53.004Z,10.23
2022-10-19T05:53:55.495Z,10.18
2022-10-19T05:55:57.646Z,10.24
2022-10-19T05:57:59.767Z,10.29
2022-10-19T06:00:03.329Z,10.25
2022-10-19T06:02:05.719Z,10.28
2022-10-19T06:04:08.024Z,10.24
2022-10-19T06:06:10.450Z,10.29
2022-10-19T06:08:12.617Z,10.31
2022-10-19T06:10:14.889Z,10.30
2022-10-19T06:12:22.883Z,10.32
2022-10-19T06:14:27.513Z,10.34
2022-10-19T06:16:30.663Z,10.37
2022-10-19T06:18:32.887Z,10.41
2022-10-19T06:20:43.077Z,10.45
2022-10-19T06:22:45.240Z,10.51
2022-10-19T06:24:47.367Z,10.51
2022-10-19T06:26:49.647Z,10.54
2022-10-19T06:28:56.275Z,10.60
2022-10-19T06:30:59.413Z,10.64
2022-10-19T06:35:08.910Z,10.69
2022-10-19T06:37:11.026Z,10.70
2022-10-19T06:39:13.221Z,10.74
2022-10-19T06:41:16.423Z,10.76
2022-10-19T06:43:18.539Z,10.80
2022-10-19T06:45:20.703Z,10.83
2022-10-19T06:47:22.798Z,10.89
2022-10-19T06:49:24.957Z,10.93
2022-10-19T06:51:29.358Z,10.96
2022-10-19T06:53:34.260Z,10.94
2022-10-19T06:55:36.875Z,10.93
2022-10-19T06:57:39.224Z,10.89
2022-10-19T06:59:41.321Z,10.90
2022-10-19T07:01:43.582Z,10.94
2022-10-19T07:03:45.720Z,10.89
2022-10-19T07:05:56.812Z,10.96
2022-10-19T07:07:58.981Z,10.97
2022-10-19T07:10:01.161Z,10.97
2022-10-19T07:12:03.483Z,10.99
2022-10-19T07:14:05.613Z,10.97
2022-10-19T07:16:15.903Z,10.98
2022-10-19T07:18:21.747Z,10.98
2022-10-19T07:20:24.267Z,11.00
2022-10-19T07:22:28.271Z,11.01
2022-10-19T07:24:30.610Z,11.05
2022-10-19T07:26:33.788Z,11.08
2022-10-19T07:28:35.975Z,11.03
2022-10-19T07:30:39.168Z,10.96
2022-10-19T07:32:46.596Z,10.99
2022-10-19T07:34:49.180Z,11.07
2022-10-19T07:36:52.629Z,11.07
2022-10-19T07:38:54.833Z,11.13
2022-10-19T07:41:05.753Z,11.14
2022-10-19T07:43:07.913Z,11.18
2022-10-19T07:45:10.561Z,11.21
2022-10-19T07:47:12.654Z,11.28
2022-10-19T07:49:16.536Z,11.35
2022-10-19T07:51:19.250Z,11.44
2022-10-19T07:53:21.709Z,11.49
2022-10-19T07:55:23.893Z,11.54
2022-10-19T07:57:26.008Z,11.57
2022-10-19T07:59:28.254Z,11.59
2022-10-19T08:01:38.105Z,11.66
2022-10-19T08:06:04.024Z,11.70
2022-10-19T08:08:06.188Z,11.71
2022-10-19T08:10:09.088Z,11.72
2022-10-19T08:12:15.101Z,11.73
2022-10-19T08:14:17.644Z,11.87
2022-10-19T08:16:28.800Z,11.94
2022-10-19T08:20:33.053Z,12.08
2022-10-19T08:22:35.489Z,12.11
2022-10-19T08:24:37.878Z,12.16
2022-10-19T08:26:40.256Z,12.25
2022-10-19T08:28:42.406Z,12.42
2022-10-19T08:30:46.564Z,12.60
2022-10-19T08:32:48.698Z,12.74
2022-10-19T08:34:50.796Z,12.98
2022-10-19T08:36:53.301Z,13.24
2022-10-19T08:38:55.499Z,13.53
2022-10-19T08:40:58.010Z,13.80
2022-10-19T08:43:12.575Z,13.93
2022-10-19T08:45:19.869Z,13.90
2022-10-19T08:47:53.855Z,13.82
2022-10-19T08:49:56.143Z,13.72
2022-10-19T08:52:00.927Z,13.72
2022-10-19T08:54:04.965Z,13.57
2022-10-19T08:56:22.075Z,13.55
2022-10-19T08:58:37.208Z,13.50
2022-10-19T09:00:44.216Z,13.52
2022-10-19T09:03:05.367Z,13.60
2022-10-19T09:05:37.180Z,13.63
2022-10-19T09:07:45.595Z,13.68
2022-10-19T09:10:16.905Z,13.63
2022-10-19T09:12:39.792Z,13.66
2022-10-19T09:14:58.019Z,14.05
2022-10-19T09:17:10.169Z,14.45
2022-10-19T09:19:32.570Z,14.90
2022-10-19T09:21:48.579Z,15.31
2022-10-19T09:24:28.349Z,15.51
2022-10-19T09:26:34.159Z,15.65
2022-10-19T09:29:04.832Z,16.01
2022-10-19T09:31:11.020Z,16.04
2022-10-19T09:33:19.200Z,15.98
2022-10-19T09:35:37.188Z,15.94
2022-10-19T09:37:42.105Z,15.89
2022-10-19T09:39:50.474Z,16.10
2022-10-19T09:42:16.491Z,16.48
2022-10-19T09:44:18.943Z,16.68
2022-10-19T09:46:52.614Z,17.08
2022-10-19T09:48:55.085Z,17.34
2022-10-19T09:51:00.578Z,17.47
2022-10-19T09:53:05.837Z,17.97
2022-10-19T09:55:14.002Z,18.29
2022-10-19T09:57:21.306Z,18.75
2022-10-19T09:59:25.310Z,18.76
2022-10-19T10:01:43.054Z,19.10
2022-10-19T10:03:45.605Z,19.13
2022-10-19T10:05:47.806Z,19.34
2022-10-19T10:07:49.923Z,19.45
2022-10-19T10:09:52.880Z,19.15
2022-10-19T10:11:57.480Z,19.22
2022-10-19T10:14:06.164Z,19.45
2022-10-19T10:16:15.661Z,19.52
2022-10-19T10:18:18.255Z,19.72
2022-10-19T10:20:32.350Z,19.61
2022-10-19T10:22:36.841Z,19.68
2022-10-19T10:24:39.173Z,19.36
2022-10-19T10:26:50.216Z,19.11
2022-10-19T10:28:53.282Z,18.37
2022-10-19T10:31:04.933Z,18.69
2022-10-19T10:33:20.461Z,19.39
2022-10-19T10:35:35.367Z,19.75
2022-10-19T10:37:46.645Z,20.33
2022-10-19T10:39:56.838Z,20.13
2022-10-19T10:42:06.979Z,19.91
2022-10-19T10:44:35.124Z,19.95
2022-10-19T10:46:43.018Z,19.75
2022-10-19T10:48:53.379Z,19.59
2022-10-19T10:50:56.955Z,19.46
2022-10-19T10:53:05.179Z,19.51
2022-10-19T10:55:18.133Z,19.67
2022-10-19T10:57:20.342Z,20.04
2022-10-19T10:59:26.703Z,20.29
2022-10-19T11:01:41.321Z,20.86
2022-10-19T11:03:49.063Z,20.77
2022-10-19T11:06:02.911Z,21.00
2022-10-19T11:08:27.110Z,21.41
2022-10-19T11:10:35.855Z,21.85
2022-10-19T11:12:47.895Z,22.07
2022-10-19T11:15:12.037Z,21.94
2022-10-19T11:17:23.113Z,21.81
2022-10-19T11:19:41.334Z,21.76
2022-10-19T11:21:54.362Z,21.97
2022-10-19T11:24:39.113Z,22.12
2022-10-19T11:27:07.117Z,22.01
2022-10-19T11:29:47.640Z,22.36
2022-10-19T11:31:56.275Z,22.56
2022-10-19T11:34:25.190Z,22.34
2022-10-19T11:36:55.012Z,22.72
2022-10-19T11:39:05.650Z,22.79
2022-10-19T11:41:46.168Z,22.95
2022-10-19T11:44:13.651Z,22.95
2022-10-19T11:46:30.773Z,23.24
2022-10-19T11:49:14.966Z,23.15
2022-10-19T11:51:46.708Z,23.31
2022-10-19T11:54:14.793Z,22.70
2022-10-19T11:56:39.313Z,22.15
2022-10-19T11:59:02.990Z,21.72
2022-10-19T12:01:37.700Z,21.40
2022-10-19T12:04:04.920Z,21.04
2022-10-19T12:06:36.220Z,21.47
2022-10-19T12:09:10.482Z,21.79
2022-10-19T12:11:41.219Z,21.82
2022-10-19T12:14:12.215Z,21.92
2022-10-19T12:16:14.420Z,21.95
2022-10-19T12:18:30.883Z,22.23
2022-10-19T12:21:11.961Z,22.27
2022-10-19T12:23:35.023Z,22.37
2022-10-19T12:25:37.776Z,22.31
2022-10-19T12:27:40.141Z,22.55
2022-10-19T12:29:45.773Z,22.43
2022-10-19T12:31:48.961Z,22.54
2022-10-19T12:34:03.175Z,22.71
2022-10-19T12:36:43.425Z,23.09
2022-10-19T12:39:09.898Z,23.32
2022-10-19T12:41:46.534Z,23.35
2022-10-19T12:44:31.691Z,23.53
2022-10-19T12:46:51.781Z,23.60
2022-10-19T12:49:26.268Z,23.70
2022-10-19T12:51:28.352Z,23.99
2022-10-19T12:53:49.019Z,23.83
2022-10-19T12:56:09.374Z,23.38
2022-10-19T12:58:22.792Z,23.24
2022-10-19T13:00:28.020Z,23.40
2022-10-19T13:04:36.078Z,22.84
2022-10-19T13:06:58.477Z,23.17
2022-10-19T13:09:08.750Z,23.08
2022-10-19T13:11:15.223Z,23.18
2022-10-19T13:13:56.646Z,23.02
2022-10-19T13:15:58.765Z,22.65
2022-10-19T13:18:05.905Z,22.88
2022-10-19T13:20:14.202Z,22.20
2022-10-19T13:22:27.347Z,22.05
2022-10-19T13:24:33.741Z,22.01
2022-10-19T13:26:36.039Z,22.34
2022-10-19T13:28:38.722Z,22.63
2022-10-19T13:30:43.953Z,23.10
2022-10-19T13:32:46.252Z,22.68
2022-10-19T13:34:48.364Z,22.51
2022-10-19T13:37:00.870Z,22.60
2022-10-19T13:39:06.197Z,21.92
2022-10-19T13:41:27.329Z,20.82
2022-10-19T13:43:37.486Z,20.50
2022-10-19T13:45:42.572Z,20.08
2022-10-19T13:47:47.656Z,19.91
2022-10-19T13:49:49.663Z,19.87
2022-10-19T13:52:22.110Z,18.91
2022-10-19T13:55:08.789Z,18.20
2022-10-19T13:57:45.149Z,17.83
2022-10-19T14:00:14.263Z,17.94
2022-10-19T14:02:50.830Z,17.69
2022-10-19T14:05:25.047Z,17.63
2022-10-19T14:07:33.411Z,17.99
2022-10-19T14:09:50.681Z,17.92
2022-10-19T14:11:53.716Z,18.42
2022-10-19T14:14:21.333Z,18.62
2022-10-19T14:16:23.485Z,18.85
2022-10-19T14:18:33.737Z,19.16
2022-10-19T14:20:38.533Z,19.44
2022-10-19T14:22:40.841Z,19.83
2022-10-19T14:24:42.993Z,20.28
2022-10-19T14:26:45.185Z,20.34
2022-10-19T14:28:51.103Z,20.45
2022-10-19T14:31:17.650Z,20.05
2022-10-19T14:33:19.962Z,20.36
2022-10-19T14:35:27.560Z,20.16
2022-10-19T14:37:29.662Z,20.41
2022-10-19T14:39:34.104Z,20.55
2022-10-19T14:41:37.263Z,20.80
2022-10-19T14:43:39.549Z,20.24
2022-10-19T14:45:41.685Z,20.81
2022-10-19T14:48:01.606Z,20.73
2022-10-19T14:50:04.294Z,20.85
2022-10-19T14:52:06.414Z,20.97
2022-10-19T14:54:37.456Z,20.79
2022-10-19T14:56:44.265Z,20.47
2022-10-19T14:58:58.179Z,20.31
2022-10-19T15:01:00.283Z,19.52
2022-10-19T15:03:05.367Z,19.51
2022-10-19T15:05:18.731Z,19.21
2022-10-19T15:07:39.586Z,18.74
2022-10-19T15:09:48.642Z,18.59
2022-10-19T15:11:50.997Z,18.45
2022-10-19T15:14:06.898Z,18.28
2022-10-19T15:16:32.310Z,18.30
2022-10-19T15:18:48.844Z,17.94
2022-10-19T15:21:17.682Z,17.83
2022-10-19T15:23:45.468Z,17.58
2022-10-19T15:25:47.590Z,17.51
2022-10-19T15:27:50.984Z,17.22
2022-10-19T15:29:58.084Z,17.04
2022-10-19T15:32:18.855Z,16.63
2022-10-19T15:34:39.070Z,16.39
2022-10-19T15:36:46.895Z,16.40
2022-10-19T15:39:25.176Z,16.19
2022-10-19T15:41:38.809Z,15.88
2022-10-19T15:43:52.144Z,15.55
2022-10-19T15:46:19.832Z,15.39
2022-10-19T15:48:55.183Z,15.08
2022-10-19T15:50:57.768Z,14.83
2022-10-19T15:52:59.957Z,14.43
2022-10-19T15:55:02.858Z,14.36
2022-10-19T15:57:25.329Z,14.18
2022-10-19T15:59:27.476Z,13.92
2022-10-19T16:01:33.634Z,13.94
2022-10-19T16:03:35.778Z,13.80
2022-10-19T16:05:37.871Z,13.48
2022-10-19T16:07:40.749Z,13.36
2022-10-19T16:09:42.943Z,13.15
2022-10-19T16:11:45.207Z,13.06
2022-10-19T16:13:47.401Z,13.00
2022-10-19T16:15:56.788Z,12.88
2022-10-19T16:18:12.426Z,12.71
2022-10-19T16:20:14.545Z,12.45
2022-10-19T16:22:16.901Z,12.42
2022-10-19T16:24:18.995Z,12.32
2022-10-19T16:26:21.989Z,12.25
2022-10-19T16:28:24.107Z,12.13
2022-10-19T16:30:26.230Z,12.15
2022-10-19T16:32:28.404Z,12.00
2022-10-19T16:34:30.688Z,11.79
2022-10-19T16:36:32.802Z,11.79
2022-10-19T16:38:35.513Z,11.54
2022-10-19T16:40:37.670Z,11.50
2022-10-19T16:42:39.868Z,11.30
2022-10-19T16:44:42.093Z,11.23
2022-10-19T16:46:44.243Z,11.26
2022-10-19T16:48:46.330Z,11.08
2022-10-19T16:51:28.578Z,11.10
2022-10-19T16:53:30.720Z,11.08
2022-10-19T16:55:32.867Z,11.00
2022-10-19T16:57:34.995Z,11.00
2022-10-19T16:59:37.137Z,10.90
2022-10-19T17:01:39.354Z,10.74
2022-10-19T17:03:42.176Z,10.68
2022-10-19T17:05:44.229Z,10.69
2022-10-19T17:07:46.638Z,10.53
2022-10-19T17:09:52.227Z,10.55
2022-10-19T17:11:56.714Z,10.40
2022-10-19T17:14:03.455Z,10.25
2022-10-19T17:16:06.756Z,10.21
2022-10-19T17:18:08.929Z,10.24
2022-10-19T17:20:11.771Z,10.16
2022-10-19T17:22:15.050Z,10.11
2022-10-19T17:24:21.721Z,10.07
2022-10-19T17:26:42.480Z,10.01
2022-10-19T17:28:44.695Z,9.93
2022-10-19T17:30:47.722Z,9.85
2022-10-19T17:32:49.856Z,9.87
2022-10-19T17:34:54.474Z,9.73
2022-10-19T17:36:56.616Z,9.63
2022-10-19T17:39:05.200Z,9.61
2022-10-19T17:41:09.886Z,9.49
2022-10-19T17:43:12.118Z,9.47
2022-10-19T17:45:14.239Z,9.40
2022-10-19T17:47:16.406Z,9.30
2022-10-19T17:49:18.912Z,9.17
2022-10-19T17:51:27.272Z,9.09
2022-10-19T17:53:29.768Z,9.12
2022-10-19T17:55:33.071Z,9.09
2022-10-19T17:57:36.332Z,8.97
2022-10-19T17:59:52.111Z,8.96
2022-10-19T18:01:55.231Z,8.91
2022-10-19T18:03:57.327Z,8.83
2022-10-19T18:06:27.520Z,8.74
2022-10-19T18:08:30.741Z,8.71
2022-10-19T18:10:36.071Z,8.70
2022-10-19T18:12:38.205Z,8.61
2022-10-19T18:14:40.623Z,8.60
2022-10-19T18:16:45.629Z,8.57
2022-10-19T18:18:49.064Z,8.43
2022-10-19T18:20:51.165Z,8.44
2022-10-19T18:22:53.288Z,8.44
2022-10-19T18:24:55.627Z,8.41
2022-10-19T18:26:57.744Z,8.38
2022-10-19T18:29:01.312Z,8.29
2022-10-19T18:31:12.434Z,8.29
2022-10-19T18:33:14.574Z,8.22
2022-10-19T18:35:16.815Z,8.20
2022-10-19T18:37:18.910Z,8.17
2022-10-19T18:39:22.127Z,8.28
2022-10-19T18:41:24.562Z,8.16
2022-10-19T18:43:26.697Z,8.18
2022-10-19T18:45:28.927Z,8.27
2022-10-19T18:47:31.347Z,8.15
2022-10-19T18:49:33.558Z,8.06
2022-10-19T18:51:35.869Z,8.01
2022-10-19T18:53:38.002Z,7.97
2022-10-19T18:55:40.977Z,7.93
2022-10-19T18:57:43.117Z,7.88
2022-10-19T18:59:45.572Z,7.86
2022-10-19T19:01:47.736Z,7.84
2022-10-19T19:03:50.983Z,7.81
2022-10-19T19:05:53.104Z,7.84
2022-10-19T19:07:56.067Z,7.86
2022-10-19T19:09:58.158Z,7.86
2022-10-19T19:12:00.386Z,7.75
2022-10-19T19:14:06.277Z,7.68
2022-10-19T19:16:08.810Z,7.60
2022-10-19T19:18:10.970Z,7.53
2022-10-19T19:20:13.153Z,7.49
2022-10-19T19:22:16.313Z,7.48
2022-10-19T19:24:20.330Z,7.45
2022-10-19T19:26:23.846Z,7.45
2022-10-19T19:28:25.978Z,7.39
2022-10-19T19:30:28.123Z,7.38
2022-10-19T19:32:30.355Z,7.44
2022-10-19T19:34:32.455Z,7.37
2022-10-19T19:36:34.653Z,7.37
2022-10-19T19:38:36.872Z,7.43
2022-10-19T19:40:44.142Z,7.35
2022-10-19T19:42:46.275Z,7.32
2022-10-19T19:44:48.371Z,7.33
2022-10-19T19:46:50.514Z,7.24
2022-10-19T19:49:00.112Z,7.20
2022-10-19T19:51:02.225Z,7.18
2022-10-19T19:53:04.358Z,7.21
2022-10-19T19:55:06.791Z,7.13
2022-10-19T19:57:08.972Z,7.14
2022-10-19T19:59:12.205Z,7.08
2022-10-19T20:01:18.834Z,7.05
2022-10-19T20:03:21.097Z,7.03
2022-10-19T20:05:23.786Z,7.04
2022-10-19T20:07:27.094Z,7.00
2022-10-19T20:09:29.888Z,7.00
2022-10-19T20:11:31.930Z,6.93
2022-10-19T20:13:34.212Z,6.90
2022-10-19T20:15:39.246Z,6.91
2022-10-19T20:17:41.510Z,6.87
2022-10-19T20:19:43.676Z,6.90
2022-10-19T20:21:45.823Z,6.88
2022-10-19T20:23:48.121Z,6.86
2022-10-19T20:25:50.855Z,6.88
2022-10-19T20:27:58.269Z,6.93
2022-10-19T20:30:00.802Z,7.00
2022-10-19T20:32:23.144Z,6.84
2022-10-19T20:34:45.572Z,6.73
2022-10-19T20:37:07.923Z,6.76
2022-10-19T20:39:30.318Z,6.73
2022-10-19T20:41:53.389Z,6.75
2022-10-19T20:44:15.722Z,6.67
2022-10-19T20:46:38.112Z,6.62
2022-10-19T20:49:01.290Z,6.65
2022-10-19T20:51:31.638Z,6.54
2022-10-19T20:53:55.663Z,6.59
2022-10-19T20:56:23.080Z,6.62
2022-10-19T20:58:45.711Z,6.50
2022-10-19T21:01:14.315Z,6.51
2022-10-19T21:03:36.862Z,6.51
2022-10-19T21:06:03.146Z,6.52
2022-10-19T21:08:25.521Z,6.49
2022-10-19T21:10:47.930Z,6.47
2022-10-19T21:13:10.293Z,6.36
2022-10-19T21:15:32.646Z,6.44
2022-10-19T21:17:54.956Z,6.34
2022-10-19T21:20:17.385Z,6.39
2022-10-19T21:22:41.546Z,6.31
2022-10-19T21:25:04.373Z,6.32
2022-10-19T21:27:26.724Z,6.24
2022-10-19T21:29:49.058Z,6.13
2022-10-19T21:32:11.400Z,6.17
2022-10-19T21:34:34.562Z,6.13
2022-10-19T21:36:56.945Z,6.06
2022-10-19T21:39:19.756Z,6.06
2022-10-19T21:41:42.120Z,5.99
2022-10-19T21:44:04.616Z,5.92
2022-10-19T21:46:27.163Z,5.90
2022-10-19T21:48:49.950Z,5.87
2022-10-19T21:51:32.148Z,5.84
2022-10-19T21:53:54.568Z,5.78
2022-10-19T21:56:16.928Z,5.70
2022-10-19T21:58:39.261Z,5.61
2022-10-19T22:01:08.074Z,5.64
2022-10-19T22:03:30.421Z,5.65
2022-10-19T22:05:52.831Z,5.68
2022-10-19T22:08:15.155Z,5.60
2022-10-19T22:10:38.297Z,5.60
2022-10-19T22:13:00.681Z,5.53
2022-10-19T22:15:22.990Z,5.45
2022-10-19T22:17:45.302Z,5.44
2022-10-19T22:20:08.580Z,5.37
2022-10-19T22:22:30.838Z,5.32
2022-10-19T22:24:54.078Z,5.42
2022-10-19T22:27:16.329Z,5.27
2022-10-19T22:29:38.650Z,5.24
2022-10-19T22:32:01.001Z,5.23
2022-10-19T22:34:23.330Z,5.20
2022-10-19T22:36:45.789Z,5.14
2022-10-19T22:39:08.185Z,5.10
2022-10-19T22:42:45.408Z,5.08
2022-10-19T22:45:08.422Z,5.10
2022-10-19T22:47:30.760Z,5.18
2022-10-19T22:49:53.082Z,5.05
2022-10-19T22:52:16.710Z,5.00
2022-10-19T22:54:39.023Z,5.06
2022-10-19T22:57:01.507Z,4.97
2022-10-19T22:59:23.835Z,4.94
2022-10-19T23:01:46.207Z,4.93
2022-10-19T23:04:08.585Z,4.89
2022-10-19T23:06:30.957Z,5.05
2022-10-19T23:08:53.941Z,4.90
2022-10-19T23:11:16.554Z,4.89
2022-10-19T23:13:39.025Z,4.82
2022-10-19T23:16:01.376Z,4.78
2022-10-19T23:18:23.735Z,4.73
2022-10-19T23:20:59.603Z,4.71
2022-10-19T23:23:22.535Z,4.67
2022-10-19T23:25:44.842Z,4.72
2022-10-19T23:28:07.335Z,4.61
2022-10-19T23:30:29.704Z,4.60
2022-10-19T23:32:52.044Z,4.57
2022-10-19T23:35:14.561Z,4.52
2022-10-19T23:37:37.385Z,4.59
2022-10-19T23:40:00.155Z,4.57
2022-10-19T23:42:22.510Z,4.57
2022-10-19T23:44:44.836Z,4.45
2022-10-19T23:47:07.184Z,4.51
2022-10-19T23:49:29.498Z,4.51
2022-10-19T23:51:51.837Z,4.48
2022-10-19T23:54:14.270Z,4.50
2022-10-19T23:56:36.602Z,4.42
2022-10-19T23:58:58.941Z,4.41
